Time;durP1;ratioP1;P1;durP2;ratioP2;P2;SDS_P1;SDS_P2;PMS_P1;PMS_P2;Temp;Humidity;BMP_temperature;BMP_pressure;BME280_temperature;BME280_humidity;BME280_pressure;Samples;Min_cycle;Max_cycle;Signal;HPM_P1;HPM_P2
2021/09/12 00:01:04;;;;;;;;;;;;;;;7.78;100.00;99886.59;5069113;28;19927;-87
2021/09/12 03:14:41;;;;;;;;;;;;;;;5.46;93.80;99859.06;5017075;28;19933;-85
2021/09/12 03:17:07;;;;;;;;;;;;;;;5.49;93.50;99864.25;5023853;28;19921;-85
2021/09/12 03:19:32;;;;;;;;;;;;;;;5.49;93.83;99859.00;5024511;28;19917;-85
2021/09/12 03:21:57;;;;;;;;;;;;;;;5.48;94.58;99862.50;5024505;28;19921;-84
2021/09/12 03:24:23;;;;;;;;;;;;;;;5.55;95.35;99853.63;5022085;28;19924;-85
2021/09/12 03:26:48;;;;;;;;;;;;;;;5.50;95.50;99852.81;5023025;28;19920;-85
2021/09/12 03:29:13;;;;;;;;;;;;;;;5.66;100.00;99858.63;5024941;28;19917;-84
2021/09/12 03:31:38;;;;;;;;;;;;;;;5.83;100.00;99850.38;5024612;28;19921;-83
2021/09/12 03:34:04;;;;;;;;;;;;;;;6.00;100.00;99856.16;5023480;28;19960;-83
2021/09/12 03:36:29;;;;;;;;;;;;;;;6.19;100.00;99850.47;5024378;28;20059;-83
2021/09/12 03:38:54;;;;;;;;;;;;;;;6.10;100.00;99853.31;5024550;28;19963;-84
2021/09/12 03:41:20;;;;;;;;;;;;;;;6.11;100.00;99839.25;5021831;28;19920;-84
2021/09/12 03:43:45;;;;;;;;;;;;;;;5.94;100.00;99844.88;5023987;28;19968;-85
2021/09/12 03:46:10;;;;;;;;;;;;;;;5.94;100.00;99851.00;5024245;28;19917;-82
2021/09/12 03:48:35;;;;;;;;;;;;;;;6.02;100.00;99852.63;5024731;28;19967;-81
2021/09/12 03:51:01;;;;;;;;;;;;;;;6.15;100.00;99854.06;5024283;28;19960;-83
2021/09/12 03:53:26;;;;;;;;;;;;;;;6.23;100.00;99846.00;5022654;28;20528;-85
2021/09/12 03:55:51;;;;;;;;;;;;;;;6.11;100.00;99850.66;5030323;28;19983;-86
2021/09/12 03:58:17;;;;;;;;;;;;;;;6.05;100.00;99855.16;5023146;28;19936;-86
2021/09/12 04:00:42;;;;;;;;;;;;;;;6.05;100.00;99857.78;5024241;28;19917;-87
2021/09/12 04:03:07;;;;;;;;;;;;;;;5.97;100.00;99856.22;5023133;28;20272;-87
2021/09/12 04:05:33;;;;;;;;;;;;;;;6.30;100.00;99856.34;5023852;28;19999;-85
2021/09/12 04:07:58;;;;;;;;;;;;;;;6.93;100.00;99858.28;5024264;28;19923;-87
2021/09/12 04:10:23;;;;;;;;;;;;;;;7.00;100.00;99844.00;5022582;28;20311;-89
2021/09/12 04:12:49;;;;;;;;;;;;;;;7.12;100.00;99848.94;5019846;28;19936;-89
2021/09/12 04:15:14;;;;;;;;;;;;;;;7.17;100.00;99848.81;5021813;28;19925;-88
2021/09/12 04:17:39;;;;;;;;;;;;;;;6.97;100.00;99846.72;5022220;28;20386;-88
2021/09/12 04:20:05;;;;;;;;;;;;;;;6.77;100.00;99844.66;5022573;28;20012;-90
2021/09/12 04:22:35;;;;;;;;;;;;;;;6.63;100.00;99851.13;5021471;28;19921;-91
2021/09/12 04:25:11;;;;;;;;;;;;;;;6.54;100.00;99851.34;5021971;28;19948;-91
2021/09/12 04:27:46;;;;;;;;;;;;;;;;;;;;;
2021/09/12 04:30:23;;;;;;;;;;;;;;;;;;;;;
2021/09/12 04:32:52;;;;;;;;;;;;;;;6.40;100.00;99859.59;5023568;28;19917;-91
2021/09/12 04:35:17;;;;;;;;;;;;;;;6.30;100.00;99858.97;5023262;28;20376;-91
2021/09/12 04:37:45;;;;;;;;;;;;;;;6.26;100.00;99852.03;5022757;28;19917;-91
2021/09/12 04:40:13;;;;;;;;;;;;;;;6.31;100.00;99850.16;5021756;28;19921;-91
2021/09/12 04:42:51;;;;;;;;;;;;;;;;;;;;;
2021/09/12 04:45:16;;;;;;;;;;;;;;;6.20;100.00;99849.53;5024160;28;19923;-91
2021/09/12 04:47:42;;;;;;;;;;;;;;;6.14;100.00;99847.06;5022534;28;20012;-91
2021/09/12 04:50:16;;;;;;;;;;;;;;;6.08;100.00;99849.81;5022376;28;19963;-91
2021/09/12 04:53:01;;;;;;;;;;;;;;;6.07;100.00;99858.63;5041182;28;19928;-90
2021/09/12 04:55:31;;;;;;;;;;;;;;;6.10;100.00;99854.16;5040566;28;19917;-91
2021/09/12 04:57:57;;;;;;;;;;;;;;;5.94;100.00;99851.00;5040343;28;19927;-89
2021/09/12 12:46:46;;;;;;;;;;;;;;;6.40;99.91;99750.81;5082090;23;19925;-88
2021/09/12 12:49:11;;;;;;;;;;;;;;;6.46;100.00;99748.00;5012016;28;19925;-88
2021/09/12 12:51:37;;;;;;;;;;;;;;;6.47;100.00;99742.72;5013068;28;20019;-87
2021/09/12 12:54:02;;;;;;;;;;;;;;;6.52;100.00;99750.50;5011934;28;19917;-87
2021/09/12 12:56:29;;;;;;;;;;;;;;;6.36;100.00;99747.41;5011923;28;19947;-88
2021/09/12 12:58:54;;;;;;;;;;;;;;;6.34;99.94;99736.06;5028262;28;20068;-87
2021/09/12 13:01:20;;;;;;;;;;;;;;;6.37;99.65;99743.88;5026808;28;20402;-88
2021/09/12 13:03:45;;;;;;;;;;;;;;;6.36;99.45;99745.63;5026400;28;19918;-88
2021/09/12 13:06:11;;;;;;;;;;;;;;;6.46;99.52;99740.13;5011042;28;20467;-88
2021/09/12 13:08:38;;;;;;;;;;;;;;;11.45;100.00;99716.50;5012177;28;19971;-83
2021/09/12 13:11:03;;;;;;;;;;;;;;;7.89;93.19;99727.13;5012712;28;19917;-85
2021/09/12 13:13:28;;;;;;;;;;;;;;;7.19;97.22;99728.41;5012800;28;19924;-85
2021/09/12 13:15:54;;;;;;;;;;;;;;;6.93;98.98;99727.41;5011412;28;20007;-85
2021/09/12 13:18:19;;;;;;;;;;;;;;;6.85;98.65;99732.03;5011484;28;20363;-84
2021/09/12 13:20:45;;;;;;;;;;;;;;;6.78;97.82;99734.00;5012156;28;19945;-85
2021/09/12 13:23:11;;;;;;;;;;;;;;;6.79;97.45;99724.31;5011350;28;20289;-86
2021/09/12 13:25:36;;;;;;;;;;;;;;;6.83;97.22;99728.56;5026825;28;19917;-84
2021/09/12 13:28:01;;;;;;;;;;;;;;;6.75;97.71;99717.38;5012474;28;20299;-85
2021/09/12 13:30:27;;;;;;;;;;;;;;;6.77;98.17;99710.34;5011317;28;19925;-85
2021/09/12 13:32:53;;;;;;;;;;;;;;;6.66;97.88;99713.25;5011031;28;20296;-83
2021/09/12 13:35:18;;;;;;;;;;;;;;;6.60;97.69;99718.69;5012478;28;20427;-83
2021/09/12 13:37:44;;;;;;;;;;;;;;;6.70;97.19;99720.16;5012020;28;19944;-85
2021/09/12 13:40:10;;;;;;;;;;;;;;;6.66;96.92;99721.16;5012528;28;19918;-84
2021/09/12 13:42:36;;;;;;;;;;;;;;;6.54;97.72;99714.44;5010764;28;19918;-84
2021/09/12 13:45:01;;;;;;;;;;;;;;;6.63;97.42;99703.66;5009727;28;19972;-85
2021/09/12 13:47:27;;;;;;;;;;;;;;;6.59;97.99;99706.44;5011942;28;20353;-85
2021/09/12 13:49:52;;;;;;;;;;;;;;;6.64;97.65;99701.91;5012281;28;19925;-85
2021/09/12 13:52:17;;;;;;;;;;;;;;;6.62;97.46;99704.59;5012098;28;19922;-85
2021/09/12 13:54:44;;;;;;;;;;;;;;;6.65;97.31;99706.25;5011481;28;20351;-85
2021/09/12 13:57:09;;;;;;;;;;;;;;;6.67;97.03;99707.94;5011332;28;19921;-85
2021/09/12 13:59:35;;;;;;;;;;;;;;;6.77;98.58;99712.97;5011082;28;20300;-84
2021/09/12 14:02:00;;;;;;;;;;;;;;;6.62;96.83;99712.50;5027142;28;19917;-85
2021/09/12 14:04:25;;;;;;;;;;;;;;;6.72;97.14;99723.63;5012095;28;20223;-85
2021/09/12 14:06:51;;;;;;;;;;;;;;;6.63;96.23;99711.56;5011953;28;19921;-85
2021/09/12 14:09:19;;;;;;;;;;;;;;;6.63;97.06;99708.94;5010792;28;19996;-84
2021/09/12 14:11:44;;;;;;;;;;;;;;;6.62;97.56;99701.97;5011624;28;20360;-84
2021/09/12 14:14:10;;;;;;;;;;;;;;;6.68;97.16;99698.28;5011881;28;19972;-85
2021/09/12 14:16:35;;;;;;;;;;;;;;;6.66;96.70;99692.19;5010727;28;19918;-84
2021/09/12 14:19:00;;;;;;;;;;;;;;;6.66;97.21;99698.31;5012089;28;20288;-84
2021/09/12 14:21:26;;;;;;;;;;;;;;;6.72;96.25;99692.03;5011904;28;19945;-85
2021/09/12 14:23:51;;;;;;;;;;;;;;;6.58;97.08;99695.03;5012012;28;20000;-84
2021/09/12 14:26:17;;;;;;;;;;;;;;;6.76;96.90;99688.38;5027123;28;19922;-84
2021/09/12 14:28:42;;;;;;;;;;;;;;;6.67;96.18;99686.88;5009969;28;19917;-84
2021/09/12 14:31:10;;;;;;;;;;;;;;;6.72;96.31;99690.25;5010528;28;20068;-85
2021/09/12 14:33:36;;;;;;;;;;;;;;;6.66;97.20;99687.78;5011982;28;20376;-84
2021/09/12 14:36:01;;;;;;;;;;;;;;;6.62;97.20;99686.16;5011779;28;19917;-84
2021/09/12 14:38:26;;;;;;;;;;;;;;;6.73;97.45;99683.19;5010567;28;19917;-84
2021/09/12 14:40:51;;;;;;;;;;;;;;;6.82;96.79;99682.94;5010605;28;19924;-84
2021/09/12 14:43:17;;;;;;;;;;;;;;;6.82;96.19;99682.09;5010536;28;20422;-83
2021/09/12 14:45:42;;;;;;;;;;;;;;;6.80;96.16;99681.28;5009195;28;19925;-85
2021/09/12 14:48:07;;;;;;;;;;;;;;;6.90;95.62;99677.44;5011709;28;19922;-83
2021/09/12 14:50:32;;;;;;;;;;;;;;;6.75;96.36;99675.25;5011591;28;19917;-83
2021/09/12 14:52:58;;;;;;;;;;;;;;;6.83;96.03;99674.16;5011528;28;19976;-84
2021/09/12 14:55:23;;;;;;;;;;;;;;;6.72;97.10;99677.06;5012781;28;19963;-84
2021/09/12 14:57:48;;;;;;;;;;;;;;;6.76;96.91;99675.22;5014172;28;19928;-85
2021/09/12 15:00:14;;;;;;;;;;;;;;;6.73;97.27;99670.03;5013109;28;19960;-84
2021/09/12 15:02:40;;;;;;;;;;;;;;;6.90;95.60;99672.19;5015202;28;20352;-84
2021/09/12 15:05:07;;;;;;;;;;;;;;;6.67;96.86;99668.47;5015316;28;19924;-85
2021/09/12 15:07:32;;;;;;;;;;;;;;;6.75;97.38;99664.72;5015133;28;19999;-84
2021/09/12 15:09:57;;;;;;;;;;;;;;;6.84;96.69;99665.31;5029973;28;20377;-84
2021/09/12 15:12:23;;;;;;;;;;;;;;;6.71;96.65;99663.97;5015081;28;19964;-84
2021/09/12 15:14:48;;;;;;;;;;;;;;;6.67;97.31;99657.03;5013714;28;20340;-85
2021/09/12 15:17:13;;;;;;;;;;;;;;;6.78;96.73;99664.63;5014606;28;19921;-84
2021/09/12 15:19:38;;;;;;;;;;;;;;;6.67;96.53;99664.94;5030040;28;19921;-84
2021/09/12 15:22:04;;;;;;;;;;;;;;;6.79;96.96;99659.31;5014480;28;19924;-83
2021/09/12 15:24:29;;;;;;;;;;;;;;;6.71;97.54;99659.53;5014830;28;19956;-84
2021/09/12 15:26:54;;;;;;;;;;;;;;;6.60;97.11;99660.78;5014702;28;19940;-84
2021/09/12 15:29:20;;;;;;;;;;;;;;;6.70;96.67;99652.56;5014728;28;19967;-84
2021/09/12 15:31:45;;;;;;;;;;;;;;;6.70;96.53;99656.94;5013338;28;20284;-84
2021/09/12 15:34:11;;;;;;;;;;;;;;;6.68;97.24;99661.41;5014545;28;19922;-84
2021/09/12 15:36:36;;;;;;;;;;;;;;;6.76;97.49;99663.81;5029717;28;20009;-84
2021/09/12 15:39:02;;;;;;;;;;;;;;;6.74;96.46;99658.59;5014386;28;20520;-85
2021/09/12 15:41:27;;;;;;;;;;;;;;;6.72;97.00;99658.66;5029708;28;19914;-84
2021/09/12 15:43:53;;;;;;;;;;;;;;;6.69;97.07;99664.00;5029463;28;20025;-84
2021/09/12 15:46:18;;;;;;;;;;;;;;;6.75;95.78;99659.47;5013990;28;19948;-84
2021/09/12 15:48:43;;;;;;;;;;;;;;;6.71;95.82;99659.53;5014351;28;20388;-85
2021/09/12 15:51:09;;;;;;;;;;;;;;;6.68;96.33;99657.00;5012851;28;19928;-84
2021/09/12 15:53:34;;;;;;;;;;;;;;;6.68;96.25;99664.03;5014293;28;19917;-84
2021/09/12 15:56:00;;;;;;;;;;;;;;;6.64;96.86;99660.66;5014187;28;19922;-85
2021/09/12 15:58:25;;;;;;;;;;;;;;;6.65;97.01;99657.13;5014057;28;19921;-83
2021/09/12 16:00:51;;;;;;;;;;;;;;;6.65;96.52;99657.13;5012889;28;19928;-84
2021/09/12 16:03:16;;;;;;;;;;;;;;;6.73;96.75;99652.47;5014006;28;20412;-84
2021/09/12 16:05:41;;;;;;;;;;;;;;;6.74;96.42;99653.34;5013833;28;19948;-83
2021/09/12 16:08:06;;;;;;;;;;;;;;;6.71;96.54;99654.28;5013746;28;19963;-84
2021/09/12 16:10:32;;;;;;;;;;;;;;;6.75;96.14;99654.19;5012992;28;19922;-84
2021/09/12 16:12:57;;;;;;;;;;;;;;;6.68;96.54;99649.09;5013686;28;19922;-84
2021/09/12 16:15:22;;;;;;;;;;;;;;;6.64;96.26;99652.75;5012638;28;19976;-84
2021/09/12 16:17:48;;;;;;;;;;;;;;;6.73;95.84;99652.47;5013960;28;19922;-84
2021/09/12 16:20:14;;;;;;;;;;;;;;;6.68;95.79;99646.47;5013594;28;19918;-84
2021/09/12 16:22:39;;;;;;;;;;;;;;;6.70;96.06;99641.16;5013809;28;19921;-83
2021/09/12 16:25:05;;;;;;;;;;;;;;;6.72;96.38;99645.47;5013580;28;20361;-83
2021/09/12 16:27:30;;;;;;;;;;;;;;;6.62;96.65;99644.03;5013722;28;19925;-84
2021/09/12 16:29:55;;;;;;;;;;;;;;;6.64;97.10;99647.47;5012276;28;19999;-84
2021/09/12 16:32:21;;;;;;;;;;;;;;;6.61;96.85;99644.09;5013627;28;19921;-84
2021/09/12 16:34:46;;;;;;;;;;;;;;;6.68;97.22;99642.97;5012010;28;19948;-83
2021/09/12 16:37:11;;;;;;;;;;;;;;;6.66;97.18;99650.91;5012092;28;19922;-84
2021/09/12 16:39:36;;;;;;;;;;;;;;;6.62;97.49;99643.16;5012202;28;19924;-84
2021/09/12 16:42:02;;;;;;;;;;;;;;;6.57;96.71;99645.06;5013412;28;20004;-84
2021/09/12 16:44:29;;;;;;;;;;;;;;;6.62;97.64;99649.31;5012428;28;19923;-84
2021/09/12 16:49:38;;;;;;;;;;;;;;;6.75;96.82;99635.75;5013249;28;19928;-84
2021/09/12 16:52:03;;;;;;;;;;;;;;;6.75;96.80;99635.75;5011729;28;19921;-84
2021/09/12 16:54:29;;;;;;;;;;;;;;;6.71;97.31;99637.63;5013047;28;19925;-84
2021/09/12 16:56:54;;;;;;;;;;;;;;;6.70;97.49;99635.88;5013109;28;20387;-84
2021/09/12 16:59:19;;;;;;;;;;;;;;;6.76;96.93;99635.72;5012804;28;19999;-84
2021/09/12 17:01:46;;;;;;;;;;;;;;;6.78;96.65;99633.03;5011652;28;20026;-84
2021/09/12 17:04:11;;;;;;;;;;;;;;;6.57;97.19;99634.53;5012539;28;19980;-84
2021/09/12 17:06:36;;;;;;;;;;;;;;;6.71;96.83;99632.34;5013131;28;20364;-84
2021/09/12 17:09:04;;;;;;;;;;;;;;;6.78;96.68;99633.03;5013057;28;20016;-84
2021/09/12 17:11:29;;;;;;;;;;;;;;;6.84;96.36;99632.84;5011132;28;19921;-84
2021/09/12 17:13:54;;;;;;;;;;;;;;;6.63;96.59;99629.94;5012781;28;20353;-84
2021/09/12 17:16:20;;;;;;;;;;;;;;;6.73;97.13;99631.41;5011296;28;19920;-84
2021/09/12 17:18:45;;;;;;;;;;;;;;;6.73;96.74;99631.41;5012183;28;19963;-84
2021/09/12 17:21:11;;;;;;;;;;;;;;;6.76;96.59;99633.06;5012886;28;19980;-84
2021/09/12 17:23:36;;;;;;;;;;;;;;;6.69;96.27;99640.31;5012824;28;20391;-84
2021/09/12 17:26:02;;;;;;;;;;;;;;;6.67;96.79;99631.59;5012522;28;20331;-84
2021/09/12 17:28:27;;;;;;;;;;;;;;;6.75;96.70;99643.66;5012583;28;20323;-83
2021/09/12 17:30:52;;;;;;;;;;;;;;;6.66;96.78;99642.16;5011707;28;19969;-84
2021/09/12 17:33:18;;;;;;;;;;;;;;;6.69;96.31;99644.72;5012336;28;19922;-84
2021/09/12 17:35:43;;;;;;;;;;;;;;;6.80;96.20;99636.50;5012237;28;20008;-84
2021/09/12 17:38:08;;;;;;;;;;;;;;;6.68;97.27;99643.84;5012448;28;20381;-84
2021/09/12 17:40:33;;;;;;;;;;;;;;;6.80;97.03;99649.69;5012484;28;20443;-84
2021/09/12 17:42:59;;;;;;;;;;;;;;;6.70;96.94;99642.03;5012404;28;19918;-84
2021/09/12 17:45:24;;;;;;;;;;;;;;;6.84;96.71;99646.03;5009706;28;19927;-84
2021/09/12 17:47:49;;;;;;;;;;;;;;;6.76;96.87;99642.75;5012101;28;20392;-84
2021/09/12 17:50:15;;;;;;;;;;;;;;;6.85;96.78;99645.13;5012281;28;20361;-84
2021/09/12 17:52:41;;;;;;;;;;;;;;;6.70;97.26;99646.41;5027494;28;19917;-84
2021/09/12 17:55:06;;;;;;;;;;;;;;;6.75;96.92;99641.03;5012231;28;19917;-84
2021/09/12 17:57:31;;;;;;;;;;;;;;;6.81;96.82;99648.75;5012149;28;19928;-84
2021/09/12 17:59:57;;;;;;;;;;;;;;;6.72;96.89;99645.47;5010978;28;19918;-84
2021/09/12 18:02:23;;;;;;;;;;;;;;;6.71;97.09;99643.75;5010595;28;19921;-84
2021/09/12 18:04:48;;;;;;;;;;;;;;;6.70;97.18;99647.31;5012136;28;19918;-83
2021/09/12 18:07:13;;;;;;;;;;;;;;;6.69;97.64;99647.34;5011998;28;20396;-83
2021/09/12 18:09:38;;;;;;;;;;;;;;;6.70;97.37;99656.94;5012045;28;19971;-83
2021/09/12 18:12:04;;;;;;;;;;;;;;;6.70;97.17;99656.94;5011840;28;20036;-83
2021/09/12 18:14:30;;;;;;;;;;;;;;;6.64;97.72;99657.16;5026277;28;20379;-83
2021/09/12 18:16:56;;;;;;;;;;;;;;;6.68;97.39;99670.16;5011732;28;19917;-83
2021/09/12 18:19:22;;;;;;;;;;;;;;;6.73;97.23;99668.28;5011760;28;20017;-82
2021/09/12 18:21:48;;;;;;;;;;;;;;;6.80;96.45;99668.09;5012141;28;20020;-83
2021/09/12 18:24:13;;;;;;;;;;;;;;;6.72;96.79;99665.69;5012120;28;19922;-83
2021/09/12 18:26:38;;;;;;;;;;;;;;;6.73;97.07;99670.91;5011871;28;19921;-83
2021/09/12 18:29:03;;;;;;;;;;;;;;;6.70;96.73;99668.38;5013861;28;19924;-83
2021/09/12 18:31:29;;;;;;;;;;;;;;;6.67;96.77;99679.00;5028701;28;20376;-83
2021/09/12 18:33:54;;;;;;;;;;;;;;;6.76;96.52;99674.38;5015589;28;20012;-82
2021/09/12 18:36:20;;;;;;;;;;;;;;;6.68;95.95;99677.22;5015617;28;20392;-83
2021/09/12 18:38:45;;;;;;;;;;;;;;;6.68;96.65;99679.84;5030776;28;19968;-83
2021/09/12 18:41:10;;;;;;;;;;;;;;;6.75;96.19;99688.44;5014776;28;19921;-83
2021/09/12 18:43:36;;;;;;;;;;;;;;;6.70;96.33;99684.16;5015453;28;19918;-83
2021/09/12 18:46:01;;;;;;;;;;;;;;;6.68;96.79;99680.69;5004809;28;19979;-83
2021/09/12 18:48:26;;;;;;;;;;;;;;;6.72;96.01;99684.97;5020809;28;19925;-83
2021/09/12 18:50:51;;;;;;;;;;;;;;;6.78;96.01;99685.69;5020565;28;20448;-82
2021/09/12 18:53:17;;;;;;;;;;;;;;;6.76;95.49;99696.28;5005516;28;19917;-82
2021/09/12 18:55:43;;;;;;;;;;;;;;;6.83;95.69;99691.69;5006076;28;19917;-82
2021/09/12 18:58:09;;;;;;;;;;;;;;;6.79;95.80;99693.56;5005730;28;19918;-82
2021/09/12 19:00:35;;;;;;;;;;;;;;;6.76;96.03;99698.06;5003973;28;20441;-83
2021/09/12 19:03:00;;;;;;;;;;;;;;;6.75;96.23;99701.59;5005418;28;19925;-82
2021/09/12 19:05:26;;;;;;;;;;;;;;;6.78;96.35;99701.50;5005487;28;20401;-82
2021/09/12 19:07:51;;;;;;;;;;;;;;;6.70;96.19;99699.97;5005276;28;20274;-82
2021/09/12 19:10:16;;;;;;;;;;;;;;;6.81;95.99;99709.31;5007930;28;19922;-82
2021/09/12 19:12:42;;;;;;;;;;;;;;;6.70;96.06;99707.88;5014972;28;19918;-82
2021/09/12 19:15:08;;;;;;;;;;;;;;;6.71;96.01;99714.00;5013718;28;20254;-83
2021/09/12 19:17:33;;;;;;;;;;;;;;;6.72;96.23;99715.72;5014022;28;19979;-83
2021/09/12 19:19:59;;;;;;;;;;;;;;;6.66;96.88;99724.66;5014890;28;19924;-83
2021/09/12 19:22:24;;;;;;;;;;;;;;;6.72;95.66;99726.25;5014886;28;19917;-82
2021/09/12 19:24:50;;;;;;;;;;;;;;;6.73;95.94;99722.69;5014930;28;19941;-83
2021/09/12 19:27:16;;;;;;;;;;;;;;;6.62;96.21;99730.91;5014815;28;19929;-83
2021/09/12 19:29:42;;;;;;;;;;;;;;;6.67;96.45;99730.78;5013379;28;20396;-83
2021/09/12 19:32:08;;;;;;;;;;;;;;;6.66;95.92;99723.78;5014551;28;19921;-82
2021/09/12 19:34:33;;;;;;;;;;;;;;;6.66;96.17;99735.19;5014607;28;19964;-83
2021/09/12 19:36:59;;;;;;;;;;;;;;;6.63;96.11;99735.25;5014754;28;19913;-83
2021/09/12 19:39:24;;;;;;;;;;;;;;;6.64;96.42;99734.38;5014881;28;19918;-83
2021/09/12 19:41:49;;;;;;;;;;;;;;;6.63;96.25;99730.00;5013993;28;19917;-82
2021/09/12 19:44:15;;;;;;;;;;;;;;;6.65;96.35;99740.50;5014501;28;20016;-83
2021/09/12 19:46:40;;;;;;;;;;;;;;;6.63;95.65;99739.66;5012806;28;19945;-82
2021/09/12 19:49:05;;;;;;;;;;;;;;;6.68;96.16;99736.00;5014306;28;19921;-83
2021/09/12 19:51:31;;;;;;;;;;;;;;;6.69;95.53;99735.09;5014431;28;20424;-83
2021/09/12 19:53:56;;;;;;;;;;;;;;;6.64;95.37;99737.00;5013577;28;19917;-83
2021/09/12 19:56:21;;;;;;;;;;;;;;;6.66;95.47;99736.97;5014133;28;20391;-83
2021/09/12 19:58:47;;;;;;;;;;;;;;;6.64;95.78;99742.25;5014198;28;19924;-83
2021/09/12 20:01:12;;;;;;;;;;;;;;;6.62;96.58;99737.94;5012812;28;20060;-83
2021/09/12 20:03:39;;;;;;;;;;;;;;;6.60;96.32;99740.59;5014152;28;19921;-83
2021/09/12 20:06:04;;;;;;;;;;;;;;;6.77;95.47;99728.78;5012682;28;19917;-83
2021/09/12 20:08:29;;;;;;;;;;;;;;;6.61;95.77;99742.34;5013954;28;19917;-82
2021/09/12 20:10:55;;;;;;;;;;;;;;;6.71;95.55;99741.19;5013411;28;19924;-83
2021/09/12 20:13:20;;;;;;;;;;;;;;;6.64;95.67;99746.69;5013720;28;20288;-83
2021/09/12 20:15:47;;;;;;;;;;;;;;;6.65;96.03;99754.53;5012694;28;19984;-83
2021/09/12 20:18:12;;;;;;;;;;;;;;;6.72;95.08;99750.81;5013841;28;19928;-83
2021/09/12 20:20:37;;;;;;;;;;;;;;;6.69;95.03;99755.31;5013824;28;19918;-83
2021/09/12 20:23:03;;;;;;;;;;;;;;;6.67;94.89;99751.84;5013805;28;20257;-83
2021/09/12 20:25:28;;;;;;;;;;;;;;;6.59;95.97;99754.69;5012816;28;20403;-83
2021/09/12 20:27:55;;;;;;;;;;;;;;;6.64;95.50;99752.81;5013750;28;19965;-83
2021/09/12 20:30:21;;;;;;;;;;;;;;;6.63;95.51;99758.09;5011443;28;20276;-83
2021/09/12 20:32:47;;;;;;;;;;;;;;;6.67;95.79;99759.72;5013388;28;20041;-83
2021/09/12 20:35:12;;;;;;;;;;;;;;;6.67;95.45;99755.34;5013569;28;19921;-83
2021/09/12 20:37:38;;;;;;;;;;;;;;;6.63;96.08;99756.31;5013471;28;20373;-83
2021/09/12 20:40:04;;;;;;;;;;;;;;;6.55;95.65;99758.31;5013747;28;19917;-83
2021/09/12 20:42:29;;;;;;;;;;;;;;;6.51;95.86;99759.28;5027873;28;19997;-83
2021/09/12 20:44:54;;;;;;;;;;;;;;;6.51;95.57;99759.28;5012211;28;20328;-84
2021/09/12 20:47:19;;;;;;;;;;;;;;;6.59;95.22;99754.69;5013119;28;19921;-84
2021/09/12 20:49:45;;;;;;;;;;;;;;;6.60;95.66;99756.41;5013202;28;19921;-83
2021/09/12 20:52:10;;;;;;;;;;;;;;;6.51;96.31;99759.28;5012455;28;19917;-84
2021/09/12 20:54:35;;;;;;;;;;;;;;;6.61;96.23;99758.16;5013148;28;19953;-83
2021/09/12 20:57:01;;;;;;;;;;;;;;;6.52;95.63;99753.97;5013275;28;20357;-83
2021/09/12 20:59:26;;;;;;;;;;;;;;;6.50;95.16;99755.78;5013027;28;20292;-83
2021/09/12 21:01:51;;;;;;;;;;;;;;;6.50;95.69;99750.53;5011967;28;20067;-83
2021/09/12 21:04:16;;;;;;;;;;;;;;;6.54;95.33;99751.31;5013054;28;20361;-83
2021/09/12 21:06:42;;;;;;;;;;;;;;;6.56;95.04;99752.16;5013258;28;19922;-84
2021/09/12 21:09:07;;;;;;;;;;;;;;;6.49;95.59;99754.09;5028019;28;19918;-83
2021/09/12 21:11:32;;;;;;;;;;;;;;;6.46;95.36;99758.53;5012457;28;19972;-83
2021/09/12 21:13:57;;;;;;;;;;;;;;;6.43;95.49;99761.25;5012733;28;19918;-83
2021/09/12 21:16:23;;;;;;;;;;;;;;;6.52;95.16;99748.72;5010337;28;19921;-83
2021/09/12 21:18:48;;;;;;;;;;;;;;;6.44;95.15;99752.47;5011340;28;19924;-83
2021/09/12 21:21:13;;;;;;;;;;;;;;;6.50;94.84;99755.78;5011545;28;19928;-83
2021/09/12 21:23:39;;;;;;;;;;;;;;;6.52;94.53;99758.38;5011277;28;19925;-83
2021/09/12 21:26:04;;;;;;;;;;;;;;;6.45;95.05;99762.09;5012605;28;20008;-83
2021/09/12 21:28:29;;;;;;;;;;;;;;;6.44;95.36;99765.63;5012376;28;19980;-83
2021/09/12 21:30:54;;;;;;;;;;;;;;;6.38;95.60;99763.16;5011254;28;19922;-83
2021/09/12 21:33:20;;;;;;;;;;;;;;;6.47;94.91;99765.53;5027558;28;20276;-83
2021/09/12 21:35:45;;;;;;;;;;;;;;;6.44;94.89;99760.38;5027572;28;19922;-83
2021/09/12 21:38:11;;;;;;;;;;;;;;;6.50;94.61;99770.72;5012412;28;19914;-83
2021/09/12 21:40:36;;;;;;;;;;;;;;;6.51;94.35;99772.44;5012314;28;19975;-83
2021/09/12 21:43:02;;;;;;;;;;;;;;;6.54;94.36;99775.00;5012526;28;20278;-83
2021/09/12 21:45:27;;;;;;;;;;;;;;;6.57;94.31;99763.53;5011033;28;19926;-83
2021/09/12 21:47:52;;;;;;;;;;;;;;;6.55;94.06;99769.69;5012281;28;20289;-83
2021/09/12 21:50:17;;;;;;;;;;;;;;;6.45;94.62;99768.22;5012336;28;19921;-83
2021/09/12 21:52:43;;;;;;;;;;;;;;;6.48;94.94;99767.28;5012212;28;19917;-83
2021/09/12 21:55:09;;;;;;;;;;;;;;;6.57;93.92;99763.53;5027543;28;19917;-83
2021/09/12 21:57:34;;;;;;;;;;;;;;;6.51;94.32;99764.53;5026418;28;19914;-83
2021/09/12 21:59:59;;;;;;;;;;;;;;;6.44;94.13;99770.88;5011172;28;19940;-83
2021/09/12 22:02:24;;;;;;;;;;;;;;;6.47;94.15;99766.41;5012341;28;19913;-83
2021/09/12 22:04:50;;;;;;;;;;;;;;;6.46;94.21;99763.81;5011850;28;19925;-83
2021/09/12 22:07:16;;;;;;;;;;;;;;;6.46;94.10;99769.97;5012351;28;19945;-84
2021/09/12 22:09:41;;;;;;;;;;;;;;;6.49;95.07;99779.53;5011743;28;19917;-83
2021/09/12 22:12:07;;;;;;;;;;;;;;;6.48;94.56;99777.81;5011798;28;19925;-83
2021/09/12 22:14:33;;;;;;;;;;;;;;;6.49;94.76;99774.25;5009635;28;19924;-82
2021/09/12 22:16:58;;;;;;;;;;;;;;;6.49;94.07;99769.88;5011899;28;20339;-83
2021/09/12 22:19:23;;;;;;;;;;;;;;;6.38;94.45;99773.69;5012089;28;20383;-83
2021/09/12 22:21:49;;;;;;;;;;;;;;;6.52;94.06;99776.81;5011991;28;20452;-82
2021/09/12 22:24:14;;;;;;;;;;;;;;;6.49;93.38;99783.03;5012016;28;19917;-83
2021/09/12 22:26:40;;;;;;;;;;;;;;;6.53;93.43;99776.78;5011931;28;19964;-83
2021/09/12 22:29:05;;;;;;;;;;;;;;;6.43;94.02;99777.03;5011865;28;19965;-83
2021/09/12 22:31:31;;;;;;;;;;;;;;;6.43;94.03;99779.69;5010614;28;20007;-83
2021/09/12 22:33:56;;;;;;;;;;;;;;;6.43;94.23;99774.41;5012054;28;19925;-84
2021/09/12 22:36:22;;;;;;;;;;;;;;;6.48;93.82;99773.41;5011934;28;20356;-84
2021/09/12 22:38:48;;;;;;;;;;;;;;;6.51;93.95;99780.34;5011801;28;19921;-84
2021/09/12 22:41:13;;;;;;;;;;;;;;;6.59;93.90;99781.03;5011816;28;19926;-84
2021/09/12 22:43:38;;;;;;;;;;;;;;;6.41;94.84;99774.44;5011798;28;19995;-83
2021/09/12 22:46:03;;;;;;;;;;;;;;;6.35;95.88;99780.75;5010318;28;20017;-83
2021/09/12 22:48:29;;;;;;;;;;;;;;;6.51;95.28;99781.22;5010825;28;19924;-83
2021/09/12 22:50:54;;;;;;;;;;;;;;;6.41;95.60;99786.75;5011614;28;20361;-83
2021/09/12 22:53:19;;;;;;;;;;;;;;;6.33;95.66;99777.31;5010507;28;20313;-82
2021/09/12 22:55:44;;;;;;;;;;;;;;;6.43;95.59;99788.47;5010297;28;19918;-84
2021/09/12 22:58:10;;;;;;;;;;;;;;;6.35;95.77;99782.50;5010364;28;19924;-83
2021/09/12 23:00:35;;;;;;;;;;;;;;;6.43;95.35;99775.31;5009004;28;19949;-84
2021/09/12 23:03:00;;;;;;;;;;;;;;;6.32;95.30;99783.47;5011486;28;20013;-83
2021/09/12 23:05:25;;;;;;;;;;;;;;;6.43;94.79;99780.56;5011506;28;19929;-84
2021/09/12 23:07:51;;;;;;;;;;;;;;;6.51;94.23;99782.97;5011742;28;19917;-83
2021/09/12 23:10:16;;;;;;;;;;;;;;;6.43;93.91;99785.84;5011383;28;20266;-83
2021/09/12 23:12:41;;;;;;;;;;;;;;;6.47;93.61;99782.19;5011377;28;20559;-83
2021/09/12 23:15:07;;;;;;;;;;;;;;;6.30;94.30;99784.41;5010594;28;19925;-84
2021/09/12 23:17:32;;;;;;;;;;;;;;;6.74;100.00;99785.00;5014866;28;20014;-84
